sensor_id;sensor_type;location;lat;lon;timestamp;P1;durP1;ratioP1;P2;durP2;ratioP2
58360;SDS011;44164;44.954;10.068;2022-10-16T00:00:57;8.55;;;6.25;;
58360;SDS011;44164;44.954;10.068;2022-10-16T00:03:23;7.18;;;6.43;;
58360;SDS011;44164;44.954;10.068;2022-10-16T00:05:49;7.45;;;6.00;;
58360;SDS011;44164;44.954;10.068;2022-10-16T00:08:15;6.88;;;6.00;;
58360;SDS011;44164;44.954;10.068;2022-10-16T00:10:41;7.40;;;6.45;;
58360;SDS011;44164;44.954;10.068;2022-10-16T00:13:07;6.50;;;5.47;;
58360;SDS011;44164;44.954;10.068;2022-10-16T00:15:34;6.68;;;5.90;;
58360;SDS011;44164;44.954;10.068;2022-10-16T00:18:02;6.60;;;5.95;;
58360;SDS011;44164;44.954;10.068;2022-10-16T00:20:30;7.75;;;5.75;;
58360;SDS011;44164;44.954;10.068;2022-10-16T00:22:59;7.28;;;6.30;;
58360;SDS011;44164;44.954;10.068;2022-10-16T00:25:25;6.45;;;5.70;;
58360;SDS011;44164;44.954;10.068;2022-10-16T00:27:51;6.13;;;5.53;;
58360;SDS011;44164;44.954;10.068;2022-10-16T00:30:17;7.93;;;6.20;;
58360;SDS011;44164;44.954;10.068;2022-10-16T00:32:43;6.80;;;6.10;;
58360;SDS011;44164;44.954;10.068;2022-10-16T00:35:09;7.32;;;6.45;;
58360;SDS011;44164;44.954;10.068;2022-10-16T00:37:36;6.90;;;6.15;;
58360;SDS011;44164;44.954;10.068;2022-10-16T00:40:02;7.13;;;5.85;;
58360;SDS011;44164;44.954;10.068;2022-10-16T00:42:29;6.43;;;5.70;;
58360;SDS011;44164;44.954;10.068;2022-10-16T00:44:56;6.70;;;6.00;;
58360;SDS011;44164;44.954;10.068;2022-10-16T00:47:26;6.85;;;6.15;;
58360;SDS011;44164;44.954;10.068;2022-10-16T00:52:36;6.60;;;5.88;;
58360;SDS011;44164;44.954;10.068;2022-10-16T00:55:05;6.40;;;5.80;;
58360;SDS011;44164;44.954;10.068;2022-10-16T00:57:32;7.05;;;6.32;;
58360;SDS011;44164;44.954;10.068;2022-10-16T00:59:58;7.95;;;5.63;;
58360;SDS011;44164;44.954;10.068;2022-10-16T01:02:24;6.30;;;5.70;;
58360;SDS011;44164;44.954;10.068;2022-10-16T01:04:51;6.53;;;5.93;;
58360;SDS011;44164;44.954;10.068;2022-10-16T01:12:47;7.28;;;5.65;;
58360;SDS011;44164;44.954;10.068;2022-10-16T01:20:19;8.50;;;6.18;;
58360;SDS011;44164;44.954;10.068;2022-10-16T01:22:57;6.97;;;5.95;;
58360;SDS011;44164;44.954;10.068;2022-10-16T01:28:06;6.93;;;6.20;;
58360;SDS011;44164;44.954;10.068;2022-10-16T01:30:34;6.43;;;5.75;;
58360;SDS011;44164;44.954;10.068;2022-10-16T01:35:35;8.95;;;7.28;;
58360;SDS011;44164;44.954;10.068;2022-10-16T01:38:03;7.93;;;6.20;;
58360;SDS011;44164;44.954;10.068;2022-10-16T01:40:58;7.88;;;5.70;;
58360;SDS011;44164;44.954;10.068;2022-10-16T01:43:28;6.93;;;6.30;;
58360;SDS011;44164;44.954;10.068;2022-10-16T01:45:59;6.97;;;6.03;;
58360;SDS011;44164;44.954;10.068;2022-10-16T01:48:26;6.47;;;5.82;;
58360;SDS011;44164;44.954;10.068;2022-10-16T01:50:59;6.88;;;6.22;;
58360;SDS011;44164;44.954;10.068;2022-10-16T01:53:29;6.70;;;6.00;;
58360;SDS011;44164;44.954;10.068;2022-10-16T01:55:55;9.73;;;6.47;;
58360;SDS011;44164;44.954;10.068;2022-10-16T01:58:22;7.60;;;6.80;;
58360;SDS011;44164;44.954;10.068;2022-10-16T02:00:49;6.88;;;5.65;;
58360;SDS011;44164;44.954;10.068;2022-10-16T02:03:18;8.73;;;6.82;;
58360;SDS011;44164;44.954;10.068;2022-10-16T02:08:17;7.60;;;6.80;;
58360;SDS011;44164;44.954;10.068;2022-10-16T02:10:44;6.80;;;6.10;;
58360;SDS011;44164;44.954;10.068;2022-10-16T02:13:16;7.85;;;5.82;;
58360;SDS011;44164;44.954;10.068;2022-10-16T02:16:06;7.03;;;6.25;;
58360;SDS011;44164;44.954;10.068;2022-10-16T02:18:33;7.00;;;6.28;;
58360;SDS011;44164;44.954;10.068;2022-10-16T02:23:56;8.13;;;6.95;;
58360;SDS011;44164;44.954;10.068;2022-10-16T02:29:28;7.18;;;6.45;;
58360;SDS011;44164;44.954;10.068;2022-10-16T02:32:01;6.60;;;5.90;;
58360;SDS011;44164;44.954;10.068;2022-10-16T02:34:28;7.43;;;6.53;;
58360;SDS011;44164;44.954;10.068;2022-10-16T02:36:56;7.03;;;6.32;;
58360;SDS011;44164;44.954;10.068;2022-10-16T02:39:23;6.60;;;5.75;;
58360;SDS011;44164;44.954;10.068;2022-10-16T02:41:49;8.30;;;7.10;;
58360;SDS011;44164;44.954;10.068;2022-10-16T02:44:15;7.75;;;6.95;;
58360;SDS011;44164;44.954;10.068;2022-10-16T02:46:41;7.45;;;6.72;;
58360;SDS011;44164;44.954;10.068;2022-10-16T02:49:08;7.68;;;6.50;;
58360;SDS011;44164;44.954;10.068;2022-10-16T02:51:34;7.32;;;6.43;;
58360;SDS011;44164;44.954;10.068;2022-10-16T02:54:00;7.18;;;6.47;;
58360;SDS011;44164;44.954;10.068;2022-10-16T02:56:27;7.30;;;6.40;;
58360;SDS011;44164;44.954;10.068;2022-10-16T02:58:53;6.90;;;6.20;;
58360;SDS011;44164;44.954;10.068;2022-10-16T03:01:19;7.40;;;6.60;;
58360;SDS011;44164;44.954;10.068;2022-10-16T03:03:45;7.05;;;6.10;;
58360;SDS011;44164;44.954;10.068;2022-10-16T03:06:11;8.32;;;7.15;;
58360;SDS011;44164;44.954;10.068;2022-10-16T03:08:37;7.80;;;6.95;;
58360;SDS011;44164;44.954;10.068;2022-10-16T03:11:04;9.32;;;7.15;;
58360;SDS011;44164;44.954;10.068;2022-10-16T03:13:30;8.48;;;6.78;;
58360;SDS011;44164;44.954;10.068;2022-10-16T03:15:56;7.05;;;6.30;;
58360;SDS011;44164;44.954;10.068;2022-10-16T03:18:22;8.15;;;6.75;;
58360;SDS011;44164;44.954;10.068;2022-10-16T03:20:48;7.82;;;6.63;;
58360;SDS011;44164;44.954;10.068;2022-10-16T03:23:14;7.40;;;6.50;;
58360;SDS011;44164;44.954;10.068;2022-10-16T03:25:40;8.02;;;7.03;;
58360;SDS011;44164;44.954;10.068;2022-10-16T03:28:06;8.48;;;7.53;;
58360;SDS011;44164;44.954;10.068;2022-10-16T03:30:32;8.25;;;7.40;;
58360;SDS011;44164;44.954;10.068;2022-10-16T03:32:59;8.35;;;7.55;;
58360;SDS011;44164;44.954;10.068;2022-10-16T03:35:25;9.20;;;6.93;;
58360;SDS011;44164;44.954;10.068;2022-10-16T03:37:51;8.07;;;7.28;;
58360;SDS011;44164;44.954;10.068;2022-10-16T03:40:17;6.97;;;6.25;;
58360;SDS011;44164;44.954;10.068;2022-10-16T03:42:43;6.80;;;6.10;;
58360;SDS011;44164;44.954;10.068;2022-10-16T03:45:10;9.02;;;7.25;;
58360;SDS011;44164;44.954;10.068;2022-10-16T03:47:36;7.60;;;6.88;;
58360;SDS011;44164;44.954;10.068;2022-10-16T03:50:03;7.43;;;6.72;;
58360;SDS011;44164;44.954;10.068;2022-10-16T03:52:30;7.53;;;6.68;;
58360;SDS011;44164;44.954;10.068;2022-10-16T03:54:57;8.80;;;7.25;;
58360;SDS011;44164;44.954;10.068;2022-10-16T03:57:23;7.25;;;6.55;;
58360;SDS011;44164;44.954;10.068;2022-10-16T03:59:50;8.32;;;6.95;;
58360;SDS011;44164;44.954;10.068;2022-10-16T04:02:16;8.35;;;7.18;;
58360;SDS011;44164;44.954;10.068;2022-10-16T04:04:42;8.90;;;7.95;;
58360;SDS011;44164;44.954;10.068;2022-10-16T04:07:08;7.40;;;6.68;;
58360;SDS011;44164;44.954;10.068;2022-10-16T04:09:34;8.88;;;7.28;;
58360;SDS011;44164;44.954;10.068;2022-10-16T04:12:01;9.55;;;7.43;;
58360;SDS011;44164;44.954;10.068;2022-10-16T04:14:27;7.38;;;6.68;;
58360;SDS011;44164;44.954;10.068;2022-10-16T04:16:53;9.30;;;7.95;;
58360;SDS011;44164;44.954;10.068;2022-10-16T04:19:19;7.90;;;7.03;;
58360;SDS011;44164;44.954;10.068;2022-10-16T04:21:45;8.77;;;7.20;;
58360;SDS011;44164;44.954;10.068;2022-10-16T04:24:11;9.75;;;7.43;;
58360;SDS011;44164;44.954;10.068;2022-10-16T04:26:37;9.32;;;7.57;;
58360;SDS011;44164;44.954;10.068;2022-10-16T04:29:03;8.82;;;7.93;;
58360;SDS011;44164;44.954;10.068;2022-10-16T04:31:30;7.40;;;6.68;;
58360;SDS011;44164;44.954;10.068;2022-10-16T04:33:56;9.13;;;7.72;;
58360;SDS011;44164;44.954;10.068;2022-10-16T04:36:22;8.25;;;7.32;;
58360;SDS011;44164;44.954;10.068;2022-10-16T04:38:49;8.60;;;7.53;;
58360;SDS011;44164;44.954;10.068;2022-10-16T04:41:15;8.00;;;7.20;;
58360;SDS011;44164;44.954;10.068;2022-10-16T04:43:41;10.35;;;8.68;;
58360;SDS011;44164;44.954;10.068;2022-10-16T04:46:08;7.85;;;7.05;;
58360;SDS011;44164;44.954;10.068;2022-10-16T04:48:35;8.73;;;7.43;;
58360;SDS011;44164;44.954;10.068;2022-10-16T04:51:01;8.60;;;7.75;;
58360;SDS011;44164;44.954;10.068;2022-10-16T04:53:27;8.93;;;7.25;;
58360;SDS011;44164;44.954;10.068;2022-10-16T04:55:54;7.93;;;7.20;;
58360;SDS011;44164;44.954;10.068;2022-10-16T04:58:20;8.07;;;7.28;;
58360;SDS011;44164;44.954;10.068;2022-10-16T05:00:46;8.35;;;7.20;;
58360;SDS011;44164;44.954;10.068;2022-10-16T05:03:12;8.77;;;7.20;;
58360;SDS011;44164;44.954;10.068;2022-10-16T05:05:42;9.38;;;8.38;;
58360;SDS011;44164;44.954;10.068;2022-10-16T05:08:13;8.20;;;7.38;;
58360;SDS011;44164;44.954;10.068;2022-10-16T05:13:06;8.77;;;7.87;;
58360;SDS011;44164;44.954;10.068;2022-10-16T05:15:33;9.93;;;7.75;;
58360;SDS011;44164;44.954;10.068;2022-10-16T05:17:59;9.30;;;8.35;;
58360;SDS011;44164;44.954;10.068;2022-10-16T05:20:25;8.50;;;7.65;;
58360;SDS011;44164;44.954;10.068;2022-10-16T05:22:51;9.07;;;8.18;;
58360;SDS011;44164;44.954;10.068;2022-10-16T05:25:17;8.40;;;7.60;;
58360;SDS011;44164;44.954;10.068;2022-10-16T05:27:46;8.73;;;7.82;;
58360;SDS011;44164;44.954;10.068;2022-10-16T05:30:14;10.15;;;8.27;;
58360;SDS011;44164;44.954;10.068;2022-10-16T05:32:40;8.20;;;7.35;;
58360;SDS011;44164;44.954;10.068;2022-10-16T05:35:07;8.80;;;7.78;;
58360;SDS011;44164;44.954;10.068;2022-10-16T05:37:33;8.90;;;7.97;;
58360;SDS011;44164;44.954;10.068;2022-10-16T05:39:59;9.68;;;8.68;;
58360;SDS011;44164;44.954;10.068;2022-10-16T05:42:25;9.68;;;8.68;;
58360;SDS011;44164;44.954;10.068;2022-10-16T05:44:51;10.32;;;8.43;;
58360;SDS011;44164;44.954;10.068;2022-10-16T05:47:17;9.20;;;8.30;;
58360;SDS011;44164;44.954;10.068;2022-10-16T05:49:43;9.40;;;8.50;;
58360;SDS011;44164;44.954;10.068;2022-10-16T05:52:09;10.35;;;8.43;;
58360;SDS011;44164;44.954;10.068;2022-10-16T05:54:35;9.40;;;8.23;;
58360;SDS011;44164;44.954;10.068;2022-10-16T05:57:02;8.23;;;7.43;;
58360;SDS011;44164;44.954;10.068;2022-10-16T05:59:28;9.07;;;8.18;;
58360;SDS011;44164;44.954;10.068;2022-10-16T06:01:54;9.40;;;8.40;;
58360;SDS011;44164;44.954;10.068;2022-10-16T06:04:20;8.82;;;8.02;;
58360;SDS011;44164;44.954;10.068;2022-10-16T06:06:46;9.32;;;8.32;;
58360;SDS011;44164;44.954;10.068;2022-10-16T06:09:12;8.25;;;7.55;;
58360;SDS011;44164;44.954;10.068;2022-10-16T06:11:38;9.70;;;8.70;;
58360;SDS011;44164;44.954;10.068;2022-10-16T06:14:04;9.98;;;8.48;;
58360;SDS011;44164;44.954;10.068;2022-10-16T06:16:33;8.65;;;7.75;;
58360;SDS011;44164;44.954;10.068;2022-10-16T06:21:27;9.65;;;8.70;;
58360;SDS011;44164;44.954;10.068;2022-10-16T06:23:54;10.07;;;8.52;;
58360;SDS011;44164;44.954;10.068;2022-10-16T06:26:22;9.40;;;8.10;;
58360;SDS011;44164;44.954;10.068;2022-10-16T06:28:50;50.45;;;36.70;;
58360;SDS011;44164;44.954;10.068;2022-10-16T06:31:16;87.97;;;65.88;;
58360;SDS011;44164;44.954;10.068;2022-10-16T06:33:43;87.53;;;63.08;;
58360;SDS011;44164;44.954;10.068;2022-10-16T06:38:38;95.32;;;67.15;;
58360;SDS011;44164;44.954;10.068;2022-10-16T06:41:05;96.30;;;69.05;;
58360;SDS011;44164;44.954;10.068;2022-10-16T06:43:32;99.10;;;72.00;;
58360;SDS011;44164;44.954;10.068;2022-10-16T06:45:59;95.53;;;69.90;;
58360;SDS011;44164;44.954;10.068;2022-10-16T06:48:25;99.38;;;71.80;;
58360;SDS011;44164;44.954;10.068;2022-10-16T06:50:56;104.13;;;72.18;;
58360;SDS011;44164;44.954;10.068;2022-10-16T06:53:25;94.45;;;69.55;;
58360;SDS011;44164;44.954;10.068;2022-10-16T06:55:51;100.28;;;72.32;;
58360;SDS011;44164;44.954;10.068;2022-10-16T06:58:18;87.53;;;64.63;;
58360;SDS011;44164;44.954;10.068;2022-10-16T07:00:44;99.53;;;72.65;;
58360;SDS011;44164;44.954;10.068;2022-10-16T07:03:10;77.68;;;62.65;;
58360;SDS011;44164;44.954;10.068;2022-10-16T07:05:39;85.78;;;64.13;;
58360;SDS011;44164;44.954;10.068;2022-10-16T07:08:08;92.15;;;68.78;;
58360;SDS011;44164;44.954;10.068;2022-10-16T07:10:35;96.30;;;70.65;;
58360;SDS011;44164;44.954;10.068;2022-10-16T07:13:01;98.63;;;73.72;;
58360;SDS011;44164;44.954;10.068;2022-10-16T07:15:27;99.45;;;72.47;;
58360;SDS011;44164;44.954;10.068;2022-10-16T07:17:54;91.18;;;70.10;;
58360;SDS011;44164;44.954;10.068;2022-10-16T07:20:20;96.72;;;73.20;;
58360;SDS011;44164;44.954;10.068;2022-10-16T07:22:46;96.38;;;70.30;;
58360;SDS011;44164;44.954;10.068;2022-10-16T07:25:12;95.60;;;71.13;;
58360;SDS011;44164;44.954;10.068;2022-10-16T07:27:38;98.30;;;73.47;;
58360;SDS011;44164;44.954;10.068;2022-10-16T07:30:05;99.93;;;72.47;;
58360;SDS011;44164;44.954;10.068;2022-10-16T07:32:31;101.53;;;71.88;;
58360;SDS011;44164;44.954;10.068;2022-10-16T07:34:58;99.35;;;69.93;;
58360;SDS011;44164;44.954;10.068;2022-10-16T07:37:24;87.50;;;67.07;;
58360;SDS011;44164;44.954;10.068;2022-10-16T07:39:50;92.13;;;69.28;;
58360;SDS011;44164;44.954;10.068;2022-10-16T07:42:17;94.20;;;70.05;;
58360;SDS011;44164;44.954;10.068;2022-10-16T07:44:43;108.47;;;73.30;;
58360;SDS011;44164;44.954;10.068;2022-10-16T07:47:09;91.00;;;67.95;;
58360;SDS011;44164;44.954;10.068;2022-10-16T07:49:35;85.57;;;64.43;;
58360;SDS011;44164;44.954;10.068;2022-10-16T07:52:01;93.18;;;67.80;;
58360;SDS011;44164;44.954;10.068;2022-10-16T07:54:28;82.32;;;62.05;;
58360;SDS011;44164;44.954;10.068;2022-10-16T07:56:54;83.13;;;63.53;;
58360;SDS011;44164;44.954;10.068;2022-10-16T07:59:20;87.10;;;65.47;;
58360;SDS011;44164;44.954;10.068;2022-10-16T08:01:48;91.63;;;65.47;;
58360;SDS011;44164;44.954;10.068;2022-10-16T08:04:14;79.57;;;60.55;;
58360;SDS011;44164;44.954;10.068;2022-10-16T08:06:40;80.32;;;62.92;;
58360;SDS011;44164;44.954;10.068;2022-10-16T08:09:07;85.10;;;62.95;;
58360;SDS011;44164;44.954;10.068;2022-10-16T08:11:34;79.57;;;59.67;;
58360;SDS011;44164;44.954;10.068;2022-10-16T08:14:00;80.57;;;60.47;;
58360;SDS011;44164;44.954;10.068;2022-10-16T08:16:26;81.18;;;62.92;;
58360;SDS011;44164;44.954;10.068;2022-10-16T08:18:52;68.97;;;57.33;;
58360;SDS011;44164;44.954;10.068;2022-10-16T08:21:19;77.80;;;61.60;;
58360;SDS011;44164;44.954;10.068;2022-10-16T08:23:46;78.70;;;59.25;;
58360;SDS011;44164;44.954;10.068;2022-10-16T08:26:13;78.32;;;59.75;;
58360;SDS011;44164;44.954;10.068;2022-10-16T08:28:39;76.32;;;58.40;;
58360;SDS011;44164;44.954;10.068;2022-10-16T08:33:35;89.85;;;65.97;;
58360;SDS011;44164;44.954;10.068;2022-10-16T08:36:02;86.85;;;65.18;;
58360;SDS011;44164;44.954;10.068;2022-10-16T08:38:29;93.50;;;68.40;;
58360;SDS011;44164;44.954;10.068;2022-10-16T08:40:58;80.22;;;62.78;;
58360;SDS011;44164;44.954;10.068;2022-10-16T08:43:36;76.80;;;60.70;;
58360;SDS011;44164;44.954;10.068;2022-10-16T08:46:25;78.38;;;60.90;;
58360;SDS011;44164;44.954;10.068;2022-10-16T08:48:54;75.15;;;60.08;;
58360;SDS011;44164;44.954;10.068;2022-10-16T08:53:57;75.78;;;60.00;;
58360;SDS011;44164;44.954;10.068;2022-10-16T08:56:24;81.97;;;63.23;;
58360;SDS011;44164;44.954;10.068;2022-10-16T08:58:51;78.68;;;60.38;;
58360;SDS011;44164;44.954;10.068;2022-10-16T09:01:19;54.30;;;45.95;;
58360;SDS011;44164;44.954;10.068;2022-10-16T09:20:38;85.40;;;61.78;;
58360;SDS011;44164;44.954;10.068;2022-10-16T09:23:16;77.45;;;56.13;;
58360;SDS011;44164;44.954;10.068;2022-10-16T09:25:52;73.90;;;54.92;;
58360;SDS011;44164;44.954;10.068;2022-10-16T09:28:19;63.15;;;51.13;;
58360;SDS011;44164;44.954;10.068;2022-10-16T09:30:46;69.53;;;53.28;;
58360;SDS011;44164;44.954;10.068;2022-10-16T09:33:14;54.45;;;45.97;;
58360;SDS011;44164;44.954;10.068;2022-10-16T09:35:42;57.75;;;44.53;;
58360;SDS011;44164;44.954;10.068;2022-10-16T09:38:27;62.33;;;45.53;;
58360;SDS011;44164;44.954;10.068;2022-10-16T09:40:58;58.80;;;43.85;;
58360;SDS011;44164;44.954;10.068;2022-10-16T09:43:38;58.17;;;44.40;;
58360;SDS011;44164;44.954;10.068;2022-10-16T09:46:07;51.60;;;43.35;;
58360;SDS011;44164;44.954;10.068;2022-10-16T09:48:56;50.42;;;40.75;;
58360;SDS011;44164;44.954;10.068;2022-10-16T09:51:25;49.08;;;40.13;;
58360;SDS011;44164;44.954;10.068;2022-10-16T09:54:00;52.08;;;41.35;;
58360;SDS011;44164;44.954;10.068;2022-10-16T09:56:36;51.20;;;40.72;;
58360;SDS011;44164;44.954;10.068;2022-10-16T09:59:12;48.13;;;36.22;;
58360;SDS011;44164;44.954;10.068;2022-10-16T10:01:40;45.50;;;36.83;;
58360;SDS011;44164;44.954;10.068;2022-10-16T10:04:07;43.72;;;34.08;;
58360;SDS011;44164;44.954;10.068;2022-10-16T10:06:35;43.03;;;33.95;;
58360;SDS011;44164;44.954;10.068;2022-10-16T10:11:42;45.42;;;33.65;;
58360;SDS011;44164;44.954;10.068;2022-10-16T10:14:26;39.58;;;32.40;;
58360;SDS011;44164;44.954;10.068;2022-10-16T10:17:08;40.50;;;32.95;;
58360;SDS011;44164;44.954;10.068;2022-10-16T10:19:46;40.05;;;32.10;;
58360;SDS011;44164;44.954;10.068;2022-10-16T10:22:25;38.30;;;32.00;;
58360;SDS011;44164;44.954;10.068;2022-10-16T10:27:48;35.17;;;29.67;;
58360;SDS011;44164;44.954;10.068;2022-10-16T10:33:40;39.67;;;30.48;;
58360;SDS011;44164;44.954;10.068;2022-10-16T10:36:23;40.20;;;29.55;;
58360;SDS011;44164;44.954;10.068;2022-10-16T10:38:58;37.60;;;28.50;;
58360;SDS011;44164;44.954;10.068;2022-10-16T11:01:08;33.88;;;25.02;;
58360;SDS011;44164;44.954;10.068;2022-10-16T11:03:45;28.67;;;23.45;;
58360;SDS011;44164;44.954;10.068;2022-10-16T11:06:22;29.33;;;22.40;;
58360;SDS011;44164;44.954;10.068;2022-10-16T11:08:53;28.67;;;22.77;;
58360;SDS011;44164;44.954;10.068;2022-10-16T11:11:29;26.50;;;20.70;;
58360;SDS011;44164;44.954;10.068;2022-10-16T11:13:59;27.00;;;20.80;;
58360;SDS011;44164;44.954;10.068;2022-10-16T11:16:56;27.05;;;20.05;;
58360;SDS011;44164;44.954;10.068;2022-10-16T11:27:38;25.05;;;18.40;;
58360;SDS011;44164;44.954;10.068;2022-10-16T11:30:11;23.98;;;17.20;;
58360;SDS011;44164;44.954;10.068;2022-10-16T11:32:49;19.92;;;16.30;;
58360;SDS011;44164;44.954;10.068;2022-10-16T11:38:03;21.92;;;16.48;;
58360;SDS011;44164;44.954;10.068;2022-10-16T11:40:38;21.55;;;15.20;;
58360;SDS011;44164;44.954;10.068;2022-10-16T11:43:12;19.70;;;14.15;;
58360;SDS011;44164;44.954;10.068;2022-10-16T11:45:42;17.20;;;15.07;;
58360;SDS011;44164;44.954;10.068;2022-10-16T11:50:58;18.02;;;12.95;;
58360;SDS011;44164;44.954;10.068;2022-10-16T11:54:16;17.70;;;14.15;;
58360;SDS011;44164;44.954;10.068;2022-10-16T11:56:47;14.60;;;12.93;;
58360;SDS011;44164;44.954;10.068;2022-10-16T12:02:45;22.85;;;14.63;;
58360;SDS011;44164;44.954;10.068;2022-10-16T12:04:50;16.83;;;12.88;;
58360;SDS011;44164;44.954;10.068;2022-10-16T12:07:24;15.55;;;12.32;;
58360;SDS011;44164;44.954;10.068;2022-10-16T12:09:53;15.35;;;12.38;;
58360;SDS011;44164;44.954;10.068;2022-10-16T12:12:39;15.88;;;12.05;;
58360;SDS011;44164;44.954;10.068;2022-10-16T12:15:26;14.57;;;11.60;;
58360;SDS011;44164;44.954;10.068;2022-10-16T12:17:54;17.23;;;11.30;;
58360;SDS011;44164;44.954;10.068;2022-10-16T12:20:30;15.88;;;10.50;;
58360;SDS011;44164;44.954;10.068;2022-10-16T12:22:59;17.67;;;12.33;;
58360;SDS011;44164;44.954;10.068;2022-10-16T12:25:31;17.90;;;11.30;;
58360;SDS011;44164;44.954;10.068;2022-10-16T12:30:25;12.50;;;10.88;;
58360;SDS011;44164;44.954;10.068;2022-10-16T12:35:24;17.37;;;11.13;;
58360;SDS011;44164;44.954;10.068;2022-10-16T12:40:56;13.80;;;11.02;;
58360;SDS011;44164;44.954;10.068;2022-10-16T12:43:34;12.27;;;9.75;;
58360;SDS011;44164;44.954;10.068;2022-10-16T12:48:35;15.70;;;10.93;;
58360;SDS011;44164;44.954;10.068;2022-10-16T12:56:49;13.35;;;9.82;;
58360;SDS011;44164;44.954;10.068;2022-10-16T12:59:41;11.45;;;9.77;;
58360;SDS011;44164;44.954;10.068;2022-10-16T13:02:21;14.85;;;10.35;;
58360;SDS011;44164;44.954;10.068;2022-10-16T13:07:37;15.60;;;10.07;;
58360;SDS011;44164;44.954;10.068;2022-10-16T13:18:46;11.15;;;9.25;;
58360;SDS011;44164;44.954;10.068;2022-10-16T13:26:53;10.50;;;8.65;;
58360;SDS011;44164;44.954;10.068;2022-10-16T13:29:23;11.38;;;9.27;;
58360;SDS011;44164;44.954;10.068;2022-10-16T13:31:49;10.52;;;8.23;;
58360;SDS011;44164;44.954;10.068;2022-10-16T13:34:16;14.50;;;8.77;;
58360;SDS011;44164;44.954;10.068;2022-10-16T13:36:46;9.82;;;8.57;;
58360;SDS011;44164;44.954;10.068;2022-10-16T13:41:40;9.68;;;8.18;;
58360;SDS011;44164;44.954;10.068;2022-10-16T13:44:12;13.30;;;9.68;;
58360;SDS011;44164;44.954;10.068;2022-10-16T13:46:40;10.77;;;8.50;;
58360;SDS011;44164;44.954;10.068;2022-10-16T13:49:16;9.57;;;8.23;;
58360;SDS011;44164;44.954;10.068;2022-10-16T13:51:56;11.65;;;8.77;;
58360;SDS011;44164;44.954;10.068;2022-10-16T13:54:25;9.48;;;8.35;;
58360;SDS011;44164;44.954;10.068;2022-10-16T13:59:32;11.35;;;8.60;;
58360;SDS011;44164;44.954;10.068;2022-10-16T14:02:00;10.70;;;8.65;;
58360;SDS011;44164;44.954;10.068;2022-10-16T14:04:34;10.60;;;8.23;;
58360;SDS011;44164;44.954;10.068;2022-10-16T14:07:04;9.75;;;8.13;;
58360;SDS011;44164;44.954;10.068;2022-10-16T14:09:30;12.65;;;8.95;;
58360;SDS011;44164;44.954;10.068;2022-10-16T14:12:18;10.93;;;8.70;;
58360;SDS011;44164;44.954;10.068;2022-10-16T14:14:46;9.65;;;8.65;;
58360;SDS011;44164;44.954;10.068;2022-10-16T14:17:36;11.00;;;8.30;;
58360;SDS011;44164;44.954;10.068;2022-10-16T14:20:02;8.95;;;7.70;;
58360;SDS011;44164;44.954;10.068;2022-10-16T14:22:37;10.50;;;7.80;;
58360;SDS011;44164;44.954;10.068;2022-10-16T14:28:27;9.75;;;7.95;;
58360;SDS011;44164;44.954;10.068;2022-10-16T14:30:50;10.38;;;8.00;;
58360;SDS011;44164;44.954;10.068;2022-10-16T14:33:24;9.25;;;8.15;;
58360;SDS011;44164;44.954;10.068;2022-10-16T14:38:36;7.82;;;7.03;;
58360;SDS011;44164;44.954;10.068;2022-10-16T14:41:04;10.00;;;7.93;;
58360;SDS011;44164;44.954;10.068;2022-10-16T14:43:40;12.30;;;7.63;;
58360;SDS011;44164;44.954;10.068;2022-10-16T14:46:10;8.45;;;7.55;;
58360;SDS011;44164;44.954;10.068;2022-10-16T14:48:42;8.73;;;7.10;;
58360;SDS011;44164;44.954;10.068;2022-10-16T14:51:13;8.70;;;7.30;;
58360;SDS011;44164;44.954;10.068;2022-10-16T14:53:40;9.57;;;7.80;;
58360;SDS011;44164;44.954;10.068;2022-10-16T14:56:17;9.77;;;7.85;;
58360;SDS011;44164;44.954;10.068;2022-10-16T14:58:47;8.77;;;7.53;;
58360;SDS011;44164;44.954;10.068;2022-10-16T15:01:14;11.38;;;7.45;;
58360;SDS011;44164;44.954;10.068;2022-10-16T15:03:40;8.25;;;7.45;;
58360;SDS011;44164;44.954;10.068;2022-10-16T15:06:10;10.90;;;6.90;;
58360;SDS011;44164;44.954;10.068;2022-10-16T15:08:38;7.90;;;6.38;;
58360;SDS011;44164;44.954;10.068;2022-10-16T15:11:04;8.52;;;7.63;;
58360;SDS011;44164;44.954;10.068;2022-10-16T15:13:31;8.68;;;7.50;;
58360;SDS011;44164;44.954;10.068;2022-10-16T15:15:57;8.68;;;7.78;;
58360;SDS011;44164;44.954;10.068;2022-10-16T15:18:23;8.35;;;6.90;;
58360;SDS011;44164;44.954;10.068;2022-10-16T15:20:50;9.02;;;6.85;;
58360;SDS011;44164;44.954;10.068;2022-10-16T15:23:18;7.53;;;6.75;;
58360;SDS011;44164;44.954;10.068;2022-10-16T15:25:47;8.88;;;6.72;;
58360;SDS011;44164;44.954;10.068;2022-10-16T15:28:17;7.93;;;6.28;;
58360;SDS011;44164;44.954;10.068;2022-10-16T15:30:44;8.95;;;6.75;;
58360;SDS011;44164;44.954;10.068;2022-10-16T15:33:12;8.48;;;6.78;;
58360;SDS011;44164;44.954;10.068;2022-10-16T15:35:41;7.97;;;7.00;;
58360;SDS011;44164;44.954;10.068;2022-10-16T15:38:11;8.18;;;6.75;;
58360;SDS011;44164;44.954;10.068;2022-10-16T15:40:38;9.63;;;6.43;;
58360;SDS011;44164;44.954;10.068;2022-10-16T15:43:04;7.30;;;6.20;;
58360;SDS011;44164;44.954;10.068;2022-10-16T15:45:30;8.80;;;6.57;;
58360;SDS011;44164;44.954;10.068;2022-10-16T15:47:56;10.57;;;6.75;;
58360;SDS011;44164;44.954;10.068;2022-10-16T15:50:23;6.85;;;6.15;;
58360;SDS011;44164;44.954;10.068;2022-10-16T15:52:49;8.73;;;6.35;;
58360;SDS011;44164;44.954;10.068;2022-10-16T15:55:16;7.30;;;6.55;;
58360;SDS011;44164;44.954;10.068;2022-10-16T16:00:11;7.25;;;6.53;;
58360;SDS011;44164;44.954;10.068;2022-10-16T16:02:42;7.07;;;6.35;;
58360;SDS011;44164;44.954;10.068;2022-10-16T16:05:10;7.95;;;6.60;;
58360;SDS011;44164;44.954;10.068;2022-10-16T16:07:37;8.45;;;5.97;;
58360;SDS011;44164;44.954;10.068;2022-10-16T16:10:04;6.90;;;6.20;;
58360;SDS011;44164;44.954;10.068;2022-10-16T16:12:32;8.88;;;6.65;;
58360;SDS011;44164;44.954;10.068;2022-10-16T16:14:59;7.45;;;6.25;;
58360;SDS011;44164;44.954;10.068;2022-10-16T16:17:25;10.98;;;6.32;;
58360;SDS011;44164;44.954;10.068;2022-10-16T16:19:51;14.80;;;6.95;;
58360;SDS011;44164;44.954;10.068;2022-10-16T16:22:17;11.60;;;7.15;;
58360;SDS011;44164;44.954;10.068;2022-10-16T16:24:44;9.90;;;7.07;;
58360;SDS011;44164;44.954;10.068;2022-10-16T16:27:10;12.85;;;6.90;;
58360;SDS011;44164;44.954;10.068;2022-10-16T16:29:36;15.35;;;7.75;;
58360;SDS011;44164;44.954;10.068;2022-10-16T16:32:02;8.13;;;6.90;;
58360;SDS011;44164;44.954;10.068;2022-10-16T16:34:28;8.18;;;6.53;;
58360;SDS011;44164;44.954;10.068;2022-10-16T16:36:55;9.68;;;5.95;;
58360;SDS011;44164;44.954;10.068;2022-10-16T16:39:22;6.07;;;5.47;;
58360;SDS011;44164;44.954;10.068;2022-10-16T16:41:48;7.75;;;5.80;;
58360;SDS011;44164;44.954;10.068;2022-10-16T16:44:15;7.03;;;5.47;;
58360;SDS011;44164;44.954;10.068;2022-10-16T16:46:42;8.70;;;5.37;;
58360;SDS011;44164;44.954;10.068;2022-10-16T16:51:40;8.63;;;6.70;;
58360;SDS011;44164;44.954;10.068;2022-10-16T16:54:07;11.95;;;5.63;;
58360;SDS011;44164;44.954;10.068;2022-10-16T16:56:34;8.73;;;5.68;;
58360;SDS011;44164;44.954;10.068;2022-10-16T16:59:00;9.68;;;5.88;;
58360;SDS011;44164;44.954;10.068;2022-10-16T17:01:27;8.10;;;5.90;;
58360;SDS011;44164;44.954;10.068;2022-10-16T17:03:54;8.25;;;5.63;;